Startpagina
METAR-TAF:

METAR-TAF

Vliegvelden :

Luchthaven Ambouli Internationaal

Djibouti, Djibouti

breedte: 11-33N, lengte: 043-10E, hoogte: 49 m

Actueel weer

Dit bericht is 1 uur en het 8 minuten geleden gemaakt, om 10:00 UTC
Wind 11 kt uit het oosten
Temperatuur 32°C
Vochtigheid 56%
Druk 1015 hPa
Zicht 10 km of meer
Weinig wolken op 2300 ft

METAR: HDAM 191000Z 08011KT 9999 FEW023 32/22 Q1015

Tijdstip: 14:08 (11:08 UTC)

Verwachting

Dit bericht is 6 uur en het 8 minuten geleden gemaakt, om 05:00 UTC
Verwachting geldig van 19 om 06 UTC tot 20 om 06 UTC
Wind 10 kt uit het oosten
Zicht 10 km of meer
Weinig wolken op 2300 ft
Weinig wolken op 2000 ft
Verspreide wolken op 3000 ft
Verspreide wolken op 2000 ft
Verspreide wolken op 3000 ft

TAF: HDAM 190500Z 1906/2006 10010KT 9999 FEW023 BECMG1915/1918 VRB03KT FEW020 SCT030 BECMG2000/206 08010KT SCT020 SCT030

Waarnemingen en weersverwachtingen van meer dan 4000 vliegvelden (METAR en TAF).

De beschikbare stations zijn de gele en rode punten op de kaart.

Ga met uw muis naar het station om de naam te zien.

Klik dan om waarnemingen en weersverwachtingen te zien.

kaart wijzigen: klik op de groene knoppen met een zwart kruis om in te zoomen, op de groene knop met een streepje om uit te zoomen of op de groene pijlen voor aangrenzende kaarten.


METAR-TAF: